sensor_id;sensor_type;location;lat;lon;timestamp;P1;durP1;ratioP1;P2;durP2;ratioP2
85835;SDS011;76292;47.678;19.066;2024-02-26T00:00:56;41.80;;;25.98;;
85835;SDS011;76292;47.678;19.066;2024-02-26T00:02:56;38.60;;;22.52;;
85835;SDS011;76292;47.678;19.066;2024-02-26T00:04:57;39.90;;;24.05;;
85835;SDS011;76292;47.678;19.066;2024-02-26T00:06:57;45.10;;;23.83;;
85835;SDS011;76292;47.678;19.066;2024-02-26T00:08:58;38.10;;;21.85;;
85835;SDS011;76292;47.678;19.066;2024-02-26T00:12:59;39.13;;;21.25;;
85835;SDS011;76292;47.678;19.066;2024-02-26T00:14:59;41.17;;;22.88;;
85835;SDS011;76292;47.678;19.066;2024-02-26T00:16:59;37.28;;;19.80;;
85835;SDS011;76292;47.678;19.066;2024-02-26T00:19:02;38.47;;;21.63;;
85835;SDS011;76292;47.678;19.066;2024-02-26T00:21:03;37.28;;;20.55;;
85835;SDS011;76292;47.678;19.066;2024-02-26T00:25:04;34.15;;;17.63;;
85835;SDS011;76292;47.678;19.066;2024-02-26T00:27:05;35.90;;;19.73;;
85835;SDS011;76292;47.678;19.066;2024-02-26T00:29:05;36.63;;;20.77;;
85835;SDS011;76292;47.678;19.066;2024-02-26T00:33:08;33.92;;;20.58;;
85835;SDS011;76292;47.678;19.066;2024-02-26T00:35:08;34.13;;;20.02;;
85835;SDS011;76292;47.678;19.066;2024-02-26T00:39:11;34.83;;;19.50;;
85835;SDS011;76292;47.678;19.066;2024-02-26T00:41:12;32.22;;;19.20;;
85835;SDS011;76292;47.678;19.066;2024-02-26T00:43:12;35.28;;;20.25;;
85835;SDS011;76292;47.678;19.066;2024-02-26T00:47:13;34.00;;;19.13;;
85835;SDS011;76292;47.678;19.066;2024-02-26T00:49:15;33.17;;;18.98;;
85835;SDS011;76292;47.678;19.066;2024-02-26T00:51:16;33.65;;;18.70;;
85835;SDS011;76292;47.678;19.066;2024-02-26T00:55:19;30.70;;;16.97;;
85835;SDS011;76292;47.678;19.066;2024-02-26T00:57:21;36.47;;;19.48;;
85835;SDS011;76292;47.678;19.066;2024-02-26T00:59:22;32.47;;;18.65;;
85835;SDS011;76292;47.678;19.066;2024-02-26T01:01:22;36.08;;;18.75;;
85835;SDS011;76292;47.678;19.066;2024-02-26T01:05:23;29.73;;;18.05;;
85835;SDS011;76292;47.678;19.066;2024-02-26T01:07:23;32.65;;;18.80;;
85835;SDS011;76292;47.678;19.066;2024-02-26T01:09:23;35.13;;;18.83;;
85835;SDS011;76292;47.678;19.066;2024-02-26T01:11:24;30.85;;;17.55;;
85835;SDS011;76292;47.678;19.066;2024-02-26T01:15:25;30.27;;;17.77;;
85835;SDS011;76292;47.678;19.066;2024-02-26T01:19:27;32.45;;;17.58;;
85835;SDS011;76292;47.678;19.066;2024-02-26T01:21:30;30.08;;;17.42;;
85835;SDS011;76292;47.678;19.066;2024-02-26T01:23:36;29.00;;;17.02;;
85835;SDS011;76292;47.678;19.066;2024-02-26T01:25:36;29.15;;;18.00;;
85835;SDS011;76292;47.678;19.066;2024-02-26T01:27:37;34.63;;;19.90;;
85835;SDS011;76292;47.678;19.066;2024-02-26T01:31:38;30.88;;;17.20;;
85835;SDS011;76292;47.678;19.066;2024-02-26T01:33:38;32.00;;;20.10;;
85835;SDS011;76292;47.678;19.066;2024-02-26T01:35:43;29.55;;;17.35;;
85835;SDS011;76292;47.678;19.066;2024-02-26T01:37:43;31.67;;;19.45;;
85835;SDS011;76292;47.678;19.066;2024-02-26T01:39:47;30.27;;;17.60;;
85835;SDS011;76292;47.678;19.066;2024-02-26T01:41:48;31.83;;;18.58;;
85835;SDS011;76292;47.678;19.066;2024-02-26T01:43:48;32.70;;;18.33;;
85835;SDS011;76292;47.678;19.066;2024-02-26T01:45:48;30.45;;;17.65;;
85835;SDS011;76292;47.678;19.066;2024-02-26T01:49:55;27.35;;;14.95;;
85835;SDS011;76292;47.678;19.066;2024-02-26T01:51:56;28.80;;;15.05;;
85835;SDS011;76292;47.678;19.066;2024-02-26T01:53:58;29.80;;;16.27;;
85835;SDS011;76292;47.678;19.066;2024-02-26T01:56:00;28.52;;;15.55;;
85835;SDS011;76292;47.678;19.066;2024-02-26T02:00:01;29.77;;;15.27;;
85835;SDS011;76292;47.678;19.066;2024-02-26T02:02:03;28.30;;;15.75;;
85835;SDS011;76292;47.678;19.066;2024-02-26T02:04:09;31.35;;;17.25;;
85835;SDS011;76292;47.678;19.066;2024-02-26T02:06:10;28.65;;;15.93;;
85835;SDS011;76292;47.678;19.066;2024-02-26T02:08:12;30.55;;;17.63;;
85835;SDS011;76292;47.678;19.066;2024-02-26T02:10:15;32.10;;;18.08;;
85835;SDS011;76292;47.678;19.066;2024-02-26T02:12:18;30.92;;;17.40;;
85835;SDS011;76292;47.678;19.066;2024-02-26T02:14:19;27.08;;;15.20;;
85835;SDS011;76292;47.678;19.066;2024-02-26T02:16:24;33.33;;;16.77;;
85835;SDS011;76292;47.678;19.066;2024-02-26T02:18:26;31.08;;;16.52;;
85835;SDS011;76292;47.678;19.066;2024-02-26T02:20:33;28.70;;;15.85;;
85835;SDS011;76292;47.678;19.066;2024-02-26T02:22:34;31.52;;;16.02;;
85835;SDS011;76292;47.678;19.066;2024-02-26T02:24:37;31.77;;;16.25;;
85835;SDS011;76292;47.678;19.066;2024-02-26T02:26:37;29.85;;;16.35;;
85835;SDS011;76292;47.678;19.066;2024-02-26T02:30:39;30.02;;;16.38;;
85835;SDS011;76292;47.678;19.066;2024-02-26T02:32:44;32.15;;;16.42;;
85835;SDS011;76292;47.678;19.066;2024-02-26T02:34:45;29.63;;;16.67;;
85835;SDS011;76292;47.678;19.066;2024-02-26T02:38:52;29.98;;;15.30;;
85835;SDS011;76292;47.678;19.066;2024-02-26T02:40:55;26.92;;;14.90;;
85835;SDS011;76292;47.678;19.066;2024-02-26T02:42:56;26.75;;;14.75;;
85835;SDS011;76292;47.678;19.066;2024-02-26T02:46:57;28.00;;;15.35;;
85835;SDS011;76292;47.678;19.066;2024-02-26T02:50:57;31.00;;;16.37;;
85835;SDS011;76292;47.678;19.066;2024-02-26T02:52:58;28.30;;;15.32;;
85835;SDS011;76292;47.678;19.066;2024-02-26T02:56:59;32.10;;;16.97;;
85835;SDS011;76292;47.678;19.066;2024-02-26T02:59:01;29.20;;;15.10;;
85835;SDS011;76292;47.678;19.066;2024-02-26T03:03:03;30.40;;;15.27;;
85835;SDS011;76292;47.678;19.066;2024-02-26T03:05:06;30.27;;;15.70;;
85835;SDS011;76292;47.678;19.066;2024-02-26T03:07:07;29.42;;;16.17;;
85835;SDS011;76292;47.678;19.066;2024-02-26T03:11:14;29.00;;;14.38;;
85835;SDS011;76292;47.678;19.066;2024-02-26T03:13:17;25.98;;;14.15;;
85835;SDS011;76292;47.678;19.066;2024-02-26T03:15:18;28.67;;;15.40;;
85835;SDS011;76292;47.678;19.066;2024-02-26T03:19:19;25.50;;;13.32;;
85835;SDS011;76292;47.678;19.066;2024-02-26T03:21:22;29.70;;;14.18;;
85835;SDS011;76292;47.678;19.066;2024-02-26T03:23:25;31.20;;;16.27;;
85835;SDS011;76292;47.678;19.066;2024-02-26T03:27:26;25.75;;;14.60;;
85835;SDS011;76292;47.678;19.066;2024-02-26T03:29:26;25.17;;;13.63;;
85835;SDS011;76292;47.678;19.066;2024-02-26T03:33:27;24.88;;;12.75;;
85835;SDS011;76292;47.678;19.066;2024-02-26T03:35:27;30.10;;;14.50;;
85835;SDS011;76292;47.678;19.066;2024-02-26T03:39:28;28.00;;;14.93;;
85835;SDS011;76292;47.678;19.066;2024-02-26T03:41:28;28.50;;;15.25;;
85835;SDS011;76292;47.678;19.066;2024-02-26T03:43:32;29.38;;;15.80;;
85835;SDS011;76292;47.678;19.066;2024-02-26T03:45:35;27.88;;;14.52;;
85835;SDS011;76292;47.678;19.066;2024-02-26T03:47:37;25.67;;;13.90;;
85835;SDS011;76292;47.678;19.066;2024-02-26T03:49:38;25.77;;;13.88;;
85835;SDS011;76292;47.678;19.066;2024-02-26T03:51:41;31.20;;;15.15;;
85835;SDS011;76292;47.678;19.066;2024-02-26T03:53:43;29.33;;;15.15;;
85835;SDS011;76292;47.678;19.066;2024-02-26T03:55:44;30.75;;;15.05;;
85835;SDS011;76292;47.678;19.066;2024-02-26T03:57:47;27.65;;;14.43;;
85835;SDS011;76292;47.678;19.066;2024-02-26T03:59:47;28.27;;;14.40;;
85835;SDS011;76292;47.678;19.066;2024-02-26T04:01:48;30.80;;;15.30;;
85835;SDS011;76292;47.678;19.066;2024-02-26T04:03:49;30.88;;;15.77;;
85835;SDS011;76292;47.678;19.066;2024-02-26T04:05:50;31.20;;;15.50;;
85835;SDS011;76292;47.678;19.066;2024-02-26T04:09:50;31.10;;;15.70;;
85835;SDS011;76292;47.678;19.066;2024-02-26T04:11:51;33.60;;;16.23;;
85835;SDS011;76292;47.678;19.066;2024-02-26T04:15:52;28.33;;;15.30;;
85835;SDS011;76292;47.678;19.066;2024-02-26T04:17:52;30.50;;;14.75;;
85835;SDS011;76292;47.678;19.066;2024-02-26T04:21:55;25.48;;;13.95;;
85835;SDS011;76292;47.678;19.066;2024-02-26T04:23:58;29.50;;;14.10;;
85835;SDS011;76292;47.678;19.066;2024-02-26T04:26:01;31.67;;;15.35;;
85835;SDS011;76292;47.678;19.066;2024-02-26T04:28:02;29.30;;;15.02;;
85835;SDS011;76292;47.678;19.066;2024-02-26T04:30:03;30.40;;;15.70;;
85835;SDS011;76292;47.678;19.066;2024-02-26T04:34:05;30.48;;;14.80;;
85835;SDS011;76292;47.678;19.066;2024-02-26T04:36:05;29.55;;;14.27;;
85835;SDS011;76292;47.678;19.066;2024-02-26T04:38:13;29.75;;;15.13;;
85835;SDS011;76292;47.678;19.066;2024-02-26T04:40:13;28.08;;;14.65;;
85835;SDS011;76292;47.678;19.066;2024-02-26T04:42:14;30.48;;;15.07;;
85835;SDS011;76292;47.678;19.066;2024-02-26T04:44:19;26.67;;;14.55;;
85835;SDS011;76292;47.678;19.066;2024-02-26T04:46:19;28.70;;;15.30;;
85835;SDS011;76292;47.678;19.066;2024-02-26T04:48:22;27.80;;;15.02;;
85835;SDS011;76292;47.678;19.066;2024-02-26T04:50:28;26.77;;;13.40;;
85835;SDS011;76292;47.678;19.066;2024-02-26T04:52:28;27.52;;;14.55;;
85835;SDS011;76292;47.678;19.066;2024-02-26T04:56:29;26.83;;;13.80;;
85835;SDS011;76292;47.678;19.066;2024-02-26T05:00:29;26.67;;;12.70;;
85835;SDS011;76292;47.678;19.066;2024-02-26T05:02:30;30.73;;;15.45;;
85835;SDS011;76292;47.678;19.066;2024-02-26T05:04:32;30.60;;;15.25;;
85835;SDS011;76292;47.678;19.066;2024-02-26T05:06:36;33.28;;;16.08;;
85835;SDS011;76292;47.678;19.066;2024-02-26T05:08:39;31.98;;;14.23;;
85835;SDS011;76292;47.678;19.066;2024-02-26T05:10:39;28.80;;;13.27;;
85835;SDS011;76292;47.678;19.066;2024-02-26T05:12:41;31.65;;;15.52;;
85835;SDS011;76292;47.678;19.066;2024-02-26T05:14:42;31.98;;;15.55;;
85835;SDS011;76292;47.678;19.066;2024-02-26T05:16:45;33.05;;;15.05;;
85835;SDS011;76292;47.678;19.066;2024-02-26T05:18:45;32.03;;;15.18;;
85835;SDS011;76292;47.678;19.066;2024-02-26T05:20:45;29.45;;;13.65;;
85835;SDS011;76292;47.678;19.066;2024-02-26T05:22:46;32.80;;;14.88;;
85835;SDS011;76292;47.678;19.066;2024-02-26T05:24:48;29.98;;;14.32;;
85835;SDS011;76292;47.678;19.066;2024-02-26T05:26:51;33.65;;;15.90;;
85835;SDS011;76292;47.678;19.066;2024-02-26T05:28:54;35.40;;;16.02;;
85835;SDS011;76292;47.678;19.066;2024-02-26T05:30:59;32.78;;;15.13;;
85835;SDS011;76292;47.678;19.066;2024-02-26T05:33:02;34.85;;;15.85;;
85835;SDS011;76292;47.678;19.066;2024-02-26T05:35:05;36.75;;;16.42;;
85835;SDS011;76292;47.678;19.066;2024-02-26T05:37:06;31.38;;;15.07;;
85835;SDS011;76292;47.678;19.066;2024-02-26T05:39:09;29.35;;;14.57;;
85835;SDS011;76292;47.678;19.066;2024-02-26T05:41:12;34.90;;;15.48;;
85835;SDS011;76292;47.678;19.066;2024-02-26T05:43:12;34.90;;;15.65;;
85835;SDS011;76292;47.678;19.066;2024-02-26T05:45:15;30.80;;;14.70;;
85835;SDS011;76292;47.678;19.066;2024-02-26T05:49:19;31.50;;;13.15;;
85835;SDS011;76292;47.678;19.066;2024-02-26T05:51:19;33.50;;;15.90;;
85835;SDS011;76292;47.678;19.066;2024-02-26T05:53:20;28.90;;;15.02;;
85835;SDS011;76292;47.678;19.066;2024-02-26T05:57:21;30.70;;;13.10;;
85835;SDS011;76292;47.678;19.066;2024-02-26T06:01:21;27.02;;;11.90;;
85835;SDS011;76292;47.678;19.066;2024-02-26T06:05:22;30.83;;;13.27;;
85835;SDS011;76292;47.678;19.066;2024-02-26T06:07:24;31.50;;;14.13;;
85835;SDS011;76292;47.678;19.066;2024-02-26T06:09:25;31.88;;;14.00;;
85835;SDS011;76292;47.678;19.066;2024-02-26T06:11:28;29.48;;;14.02;;
85835;SDS011;76292;47.678;19.066;2024-02-26T06:13:31;30.83;;;14.25;;
85835;SDS011;76292;47.678;19.066;2024-02-26T06:15:32;27.17;;;13.25;;
85835;SDS011;76292;47.678;19.066;2024-02-26T06:17:32;29.65;;;13.35;;
85835;SDS011;76292;47.678;19.066;2024-02-26T06:19:33;31.40;;;14.93;;
85835;SDS011;76292;47.678;19.066;2024-02-26T06:21:34;31.67;;;14.60;;
85835;SDS011;76292;47.678;19.066;2024-02-26T06:25:37;27.38;;;13.45;;
85835;SDS011;76292;47.678;19.066;2024-02-26T06:27:38;28.63;;;12.65;;
85835;SDS011;76292;47.678;19.066;2024-02-26T06:29:38;26.50;;;12.43;;
85835;SDS011;76292;47.678;19.066;2024-02-26T06:31:39;29.10;;;13.85;;
85835;SDS011;76292;47.678;19.066;2024-02-26T06:33:39;28.55;;;12.07;;
85835;SDS011;76292;47.678;19.066;2024-02-26T06:35:40;28.27;;;12.77;;
85835;SDS011;76292;47.678;19.066;2024-02-26T06:39:43;27.50;;;12.30;;
85835;SDS011;76292;47.678;19.066;2024-02-26T06:41:46;25.75;;;12.55;;
85835;SDS011;76292;47.678;19.066;2024-02-26T06:45:49;26.52;;;12.75;;
85835;SDS011;76292;47.678;19.066;2024-02-26T06:47:53;27.92;;;12.30;;
85835;SDS011;76292;47.678;19.066;2024-02-26T06:49:56;29.90;;;12.80;;
85835;SDS011;76292;47.678;19.066;2024-02-26T06:52:00;26.17;;;13.05;;
85835;SDS011;76292;47.678;19.066;2024-02-26T06:54:00;44.03;;;19.40;;
85835;SDS011;76292;47.678;19.066;2024-02-26T06:56:03;44.45;;;19.48;;
85835;SDS011;76292;47.678;19.066;2024-02-26T07:00:04;37.23;;;17.20;;
85835;SDS011;76292;47.678;19.066;2024-02-26T07:04:10;35.25;;;15.68;;
85835;SDS011;76292;47.678;19.066;2024-02-26T07:06:11;28.70;;;14.85;;
85835;SDS011;76292;47.678;19.066;2024-02-26T07:08:14;29.58;;;14.65;;
85835;SDS011;76292;47.678;19.066;2024-02-26T07:12:14;30.63;;;13.13;;
85835;SDS011;76292;47.678;19.066;2024-02-26T07:14:16;24.98;;;11.65;;
85835;SDS011;76292;47.678;19.066;2024-02-26T07:18:16;23.90;;;11.00;;
85835;SDS011;76292;47.678;19.066;2024-02-26T07:20:17;26.08;;;12.68;;
85835;SDS011;76292;47.678;19.066;2024-02-26T07:22:19;25.60;;;12.75;;
85835;SDS011;76292;47.678;19.066;2024-02-26T07:26:20;27.33;;;12.77;;
85835;SDS011;76292;47.678;19.066;2024-02-26T07:30:21;27.48;;;14.13;;
85835;SDS011;76292;47.678;19.066;2024-02-26T07:32:24;26.13;;;15.27;;
85835;SDS011;76292;47.678;19.066;2024-02-26T07:36:29;28.92;;;13.50;;
85835;SDS011;76292;47.678;19.066;2024-02-26T07:40:32;24.75;;;12.40;;
85835;SDS011;76292;47.678;19.066;2024-02-26T07:42:34;25.58;;;12.63;;
85835;SDS011;76292;47.678;19.066;2024-02-26T07:46:35;32.13;;;14.73;;
85835;SDS011;76292;47.678;19.066;2024-02-26T07:50:36;22.33;;;11.90;;
85835;SDS011;76292;47.678;19.066;2024-02-26T07:54:36;25.53;;;12.60;;
85835;SDS011;76292;47.678;19.066;2024-02-26T07:58:37;25.90;;;11.98;;
85835;SDS011;76292;47.678;19.066;2024-02-26T08:02:38;23.97;;;11.97;;
85835;SDS011;76292;47.678;19.066;2024-02-26T08:06:39;25.42;;;13.43;;
85835;SDS011;76292;47.678;19.066;2024-02-26T08:10:40;28.27;;;15.93;;
85835;SDS011;76292;47.678;19.066;2024-02-26T08:12:42;24.95;;;14.45;;
85835;SDS011;76292;47.678;19.066;2024-02-26T08:14:48;28.30;;;13.68;;
85835;SDS011;76292;47.678;19.066;2024-02-26T08:16:51;29.40;;;15.85;;
85835;SDS011;76292;47.678;19.066;2024-02-26T08:20:52;31.55;;;16.48;;
85835;SDS011;76292;47.678;19.066;2024-02-26T08:24:53;32.43;;;17.73;;
85835;SDS011;76292;47.678;19.066;2024-02-26T08:26:53;34.30;;;19.00;;
85835;SDS011;76292;47.678;19.066;2024-02-26T08:28:54;35.15;;;20.27;;
85835;SDS011;76292;47.678;19.066;2024-02-26T08:30:55;36.45;;;19.70;;
85835;SDS011;76292;47.678;19.066;2024-02-26T08:34:56;35.92;;;19.63;;
85835;SDS011;76292;47.678;19.066;2024-02-26T08:38:57;36.47;;;20.00;;
85835;SDS011;76292;47.678;19.066;2024-02-26T08:40:57;34.67;;;19.20;;
85835;SDS011;76292;47.678;19.066;2024-02-26T08:43:00;36.03;;;19.63;;
85835;SDS011;76292;47.678;19.066;2024-02-26T08:45:03;37.72;;;20.38;;
85835;SDS011;76292;47.678;19.066;2024-02-26T08:47:03;35.67;;;20.52;;
85835;SDS011;76292;47.678;19.066;2024-02-26T08:49:06;39.70;;;20.38;;
85835;SDS011;76292;47.678;19.066;2024-02-26T08:51:07;38.50;;;21.83;;
85835;SDS011;76292;47.678;19.066;2024-02-26T08:53:08;36.63;;;21.23;;
85835;SDS011;76292;47.678;19.066;2024-02-26T08:57:09;36.97;;;21.20;;
85835;SDS011;76292;47.678;19.066;2024-02-26T08:59:09;41.70;;;26.10;;
85835;SDS011;76292;47.678;19.066;2024-02-26T09:01:12;40.53;;;24.35;;
85835;SDS011;76292;47.678;19.066;2024-02-26T09:03:13;38.42;;;22.10;;
85835;SDS011;76292;47.678;19.066;2024-02-26T09:05:13;35.78;;;21.98;;
85835;SDS011;76292;47.678;19.066;2024-02-26T09:07:13;40.00;;;23.25;;
85835;SDS011;76292;47.678;19.066;2024-02-26T09:09:16;37.55;;;23.13;;
85835;SDS011;76292;47.678;19.066;2024-02-26T09:11:17;41.47;;;24.63;;
85835;SDS011;76292;47.678;19.066;2024-02-26T09:13:17;41.55;;;24.48;;
85835;SDS011;76292;47.678;19.066;2024-02-26T09:15:18;37.33;;;22.65;;
85835;SDS011;76292;47.678;19.066;2024-02-26T09:17:19;39.35;;;23.05;;
85835;SDS011;76292;47.678;19.066;2024-02-26T09:19:22;39.90;;;23.73;;
85835;SDS011;76292;47.678;19.066;2024-02-26T09:21:23;41.40;;;23.88;;
85835;SDS011;76292;47.678;19.066;2024-02-26T09:23:24;40.28;;;22.88;;
85835;SDS011;76292;47.678;19.066;2024-02-26T09:25:25;38.45;;;24.60;;
85835;SDS011;76292;47.678;19.066;2024-02-26T09:27:25;36.97;;;21.73;;
85835;SDS011;76292;47.678;19.066;2024-02-26T09:29:25;38.40;;;22.55;;
85835;SDS011;76292;47.678;19.066;2024-02-26T09:31:26;36.55;;;21.80;;
85835;SDS011;76292;47.678;19.066;2024-02-26T09:33:29;38.63;;;22.80;;
85835;SDS011;76292;47.678;19.066;2024-02-26T09:35:29;35.90;;;23.10;;
85835;SDS011;76292;47.678;19.066;2024-02-26T09:37:32;38.38;;;22.65;;
85835;SDS011;76292;47.678;19.066;2024-02-26T09:39:33;39.10;;;25.10;;
85835;SDS011;76292;47.678;19.066;2024-02-26T09:41:37;39.60;;;24.85;;
85835;SDS011;76292;47.678;19.066;2024-02-26T09:43:38;39.80;;;23.45;;
85835;SDS011;76292;47.678;19.066;2024-02-26T09:45:43;37.45;;;22.58;;
85835;SDS011;76292;47.678;19.066;2024-02-26T09:47:44;40.15;;;23.55;;
85835;SDS011;76292;47.678;19.066;2024-02-26T09:49:47;39.53;;;23.65;;
85835;SDS011;76292;47.678;19.066;2024-02-26T09:51:49;38.25;;;22.95;;
85835;SDS011;76292;47.678;19.066;2024-02-26T09:53:51;37.42;;;23.00;;
85835;SDS011;76292;47.678;19.066;2024-02-26T09:55:54;34.35;;;22.75;;
85835;SDS011;76292;47.678;19.066;2024-02-26T09:57:58;37.83;;;23.70;;
85835;SDS011;76292;47.678;19.066;2024-02-26T09:59:59;38.75;;;24.05;;
85835;SDS011;76292;47.678;19.066;2024-02-26T10:02:06;34.33;;;21.27;;
85835;SDS011;76292;47.678;19.066;2024-02-26T10:04:10;36.72;;;23.75;;
85835;SDS011;76292;47.678;19.066;2024-02-26T10:06:11;37.10;;;23.80;;
85835;SDS011;76292;47.678;19.066;2024-02-26T10:08:14;37.53;;;23.45;;
85835;SDS011;76292;47.678;19.066;2024-02-26T10:10:18;37.47;;;23.23;;
85835;SDS011;76292;47.678;19.066;2024-02-26T10:12:19;36.92;;;24.33;;
85835;SDS011;76292;47.678;19.066;2024-02-26T10:14:20;36.40;;;22.85;;
85835;SDS011;76292;47.678;19.066;2024-02-26T10:16:24;35.97;;;22.65;;
85835;SDS011;76292;47.678;19.066;2024-02-26T10:18:25;41.58;;;23.38;;
85835;SDS011;76292;47.678;19.066;2024-02-26T10:20:26;40.60;;;25.20;;
85835;SDS011;76292;47.678;19.066;2024-02-26T10:22:28;38.58;;;24.08;;
85835;SDS011;76292;47.678;19.066;2024-02-26T10:24:28;36.95;;;24.17;;
85835;SDS011;76292;47.678;19.066;2024-02-26T10:26:32;35.50;;;23.23;;
85835;SDS011;76292;47.678;19.066;2024-02-26T10:28:34;38.90;;;26.42;;
85835;SDS011;76292;47.678;19.066;2024-02-26T10:30:36;38.58;;;23.50;;
85835;SDS011;76292;47.678;19.066;2024-02-26T10:32:37;38.53;;;23.05;;
85835;SDS011;76292;47.678;19.066;2024-02-26T10:34:40;37.03;;;23.85;;
85835;SDS011;76292;47.678;19.066;2024-02-26T10:36:41;41.42;;;24.00;;
85835;SDS011;76292;47.678;19.066;2024-02-26T10:38:43;37.35;;;24.83;;
85835;SDS011;76292;47.678;19.066;2024-02-26T10:40:44;38.45;;;24.20;;
85835;SDS011;76292;47.678;19.066;2024-02-26T10:42:47;36.00;;;23.60;;
85835;SDS011;76292;47.678;19.066;2024-02-26T10:44:47;38.95;;;23.92;;
85835;SDS011;76292;47.678;19.066;2024-02-26T10:46:48;38.78;;;23.83;;
85835;SDS011;76292;47.678;19.066;2024-02-26T10:48:52;33.47;;;23.27;;
85835;SDS011;76292;47.678;19.066;2024-02-26T10:50:53;37.50;;;24.23;;
85835;SDS011;76292;47.678;19.066;2024-02-26T10:52:56;42.67;;;26.95;;
85835;SDS011;76292;47.678;19.066;2024-02-26T10:54:58;38.63;;;25.27;;
85835;SDS011;76292;47.678;19.066;2024-02-26T10:57:02;35.60;;;22.95;;
85835;SDS011;76292;47.678;19.066;2024-02-26T10:59:04;36.42;;;23.90;;
85835;SDS011;76292;47.678;19.066;2024-02-26T11:01:07;35.67;;;23.20;;
85835;SDS011;76292;47.678;19.066;2024-02-26T11:03:10;37.00;;;24.80;;
85835;SDS011;76292;47.678;19.066;2024-02-26T11:05:11;37.15;;;22.42;;
85835;SDS011;76292;47.678;19.066;2024-02-26T11:07:12;37.22;;;22.42;;
85835;SDS011;76292;47.678;19.066;2024-02-26T11:09:14;38.17;;;22.77;;
85835;SDS011;76292;47.678;19.066;2024-02-26T11:11:15;34.08;;;21.58;;
85835;SDS011;76292;47.678;19.066;2024-02-26T11:13:19;35.97;;;21.85;;
85835;SDS011;76292;47.678;19.066;2024-02-26T11:15:21;36.35;;;22.58;;
85835;SDS011;76292;47.678;19.066;2024-02-26T11:17:22;35.53;;;21.80;;
85835;SDS011;76292;47.678;19.066;2024-02-26T11:19:28;37.42;;;22.45;;
85835;SDS011;76292;47.678;19.066;2024-02-26T11:21:35;33.38;;;21.40;;
85835;SDS011;76292;47.678;19.066;2024-02-26T11:23:42;35.08;;;22.75;;
85835;SDS011;76292;47.678;19.066;2024-02-26T11:25:43;34.10;;;21.08;;
85835;SDS011;76292;47.678;19.066;2024-02-26T11:27:44;29.95;;;18.13;;
85835;SDS011;76292;47.678;19.066;2024-02-26T11:29:50;26.83;;;18.25;;
85835;SDS011;76292;47.678;19.066;2024-02-26T11:31:55;28.83;;;18.70;;
85835;SDS011;76292;47.678;19.066;2024-02-26T11:33:55;29.50;;;19.00;;
85835;SDS011;76292;47.678;19.066;2024-02-26T11:35:56;29.70;;;20.27;;
85835;SDS011;76292;47.678;19.066;2024-02-26T11:37:59;29.77;;;19.27;;
85835;SDS011;76292;47.678;19.066;2024-02-26T11:40:09;28.17;;;18.10;;
85835;SDS011;76292;47.678;19.066;2024-02-26T11:42:15;26.75;;;18.63;;
85835;SDS011;76292;47.678;19.066;2024-02-26T11:44:18;27.23;;;18.35;;
85835;SDS011;76292;47.678;19.066;2024-02-26T11:46:32;29.48;;;19.60;;
85835;SDS011;76292;47.678;19.066;2024-02-26T11:48:38;27.42;;;20.67;;
85835;SDS011;76292;47.678;19.066;2024-02-26T11:50:39;25.63;;;17.40;;
85835;SDS011;76292;47.678;19.066;2024-02-26T11:52:41;27.10;;;17.42;;
85835;SDS011;76292;47.678;19.066;2024-02-26T11:56:54;27.33;;;17.27;;
85835;SDS011;76292;47.678;19.066;2024-02-26T11:59:02;24.23;;;16.15;;
85835;SDS011;76292;47.678;19.066;2024-02-26T12:01:35;26.75;;;19.35;;
85835;SDS011;76292;47.678;19.066;2024-02-26T12:03:39;25.88;;;16.48;;
85835;SDS011;76292;47.678;19.066;2024-02-26T12:05:39;24.67;;;16.15;;
85835;SDS011;76292;47.678;19.066;2024-02-26T12:07:40;26.83;;;16.67;;
85835;SDS011;76292;47.678;19.066;2024-02-26T12:09:44;25.90;;;17.63;;
85835;SDS011;76292;47.678;19.066;2024-02-26T12:11:45;23.33;;;16.35;;
85835;SDS011;76292;47.678;19.066;2024-02-26T12:13:49;25.48;;;16.75;;
85835;SDS011;76292;47.678;19.066;2024-02-26T12:15:56;22.98;;;16.48;;
85835;SDS011;76292;47.678;19.066;2024-02-26T12:18:00;24.70;;;16.80;;
85835;SDS011;76292;47.678;19.066;2024-02-26T12:20:10;23.73;;;16.73;;
85835;SDS011;76292;47.678;19.066;2024-02-26T12:22:13;27.48;;;18.10;;
85835;SDS011;76292;47.678;19.066;2024-02-26T12:24:14;27.63;;;17.25;;
85835;SDS011;76292;47.678;19.066;2024-02-26T12:26:16;29.85;;;17.95;;
85835;SDS011;76292;47.678;19.066;2024-02-26T12:28:16;27.77;;;17.52;;
85835;SDS011;76292;47.678;19.066;2024-02-26T12:30:17;25.92;;;18.13;;
85835;SDS011;76292;47.678;19.066;2024-02-26T12:32:18;30.35;;;18.35;;
85835;SDS011;76292;47.678;19.066;2024-02-26T12:34:18;34.03;;;20.77;;
85835;SDS011;76292;47.678;19.066;2024-02-26T12:36:20;34.35;;;21.17;;
85835;SDS011;76292;47.678;19.066;2024-02-26T12:38:21;41.15;;;24.73;;
85835;SDS011;76292;47.678;19.066;2024-02-26T12:40:21;28.55;;;18.60;;
85835;SDS011;76292;47.678;19.066;2024-02-26T12:42:22;27.30;;;17.77;;
85835;SDS011;76292;47.678;19.066;2024-02-26T12:44:25;24.88;;;16.45;;
85835;SDS011;76292;47.678;19.066;2024-02-26T12:46:26;22.88;;;16.40;;
85835;SDS011;76292;47.678;19.066;2024-02-26T12:48:27;27.30;;;16.83;;
85835;SDS011;76292;47.678;19.066;2024-02-26T12:50:27;25.92;;;16.88;;
85835;SDS011;76292;47.678;19.066;2024-02-26T12:52:27;21.95;;;16.52;;
85835;SDS011;76292;47.678;19.066;2024-02-26T12:54:31;23.02;;;16.27;;
85835;SDS011;76292;47.678;19.066;2024-02-26T12:56:34;24.27;;;16.75;;
85835;SDS011;76292;47.678;19.066;2024-02-26T12:58:35;22.35;;;14.85;;
85835;SDS011;76292;47.678;19.066;2024-02-26T13:00:39;19.92;;;13.20;;
85835;SDS011;76292;47.678;19.066;2024-02-26T13:02:40;17.90;;;13.35;;
85835;SDS011;76292;47.678;19.066;2024-02-26T13:04:44;22.38;;;14.25;;
85835;SDS011;76292;47.678;19.066;2024-02-26T13:06:45;19.20;;;13.27;;
85835;SDS011;76292;47.678;19.066;2024-02-26T13:08:47;19.70;;;13.57;;
85835;SDS011;76292;47.678;19.066;2024-02-26T13:10:50;20.20;;;13.30;;
85835;SDS011;76292;47.678;19.066;2024-02-26T13:12:51;21.20;;;13.30;;
85835;SDS011;76292;47.678;19.066;2024-02-26T13:15:02;20.00;;;12.55;;
85835;SDS011;76292;47.678;19.066;2024-02-26T13:17:03;19.35;;;12.70;;
85835;SDS011;76292;47.678;19.066;2024-02-26T13:19:08;19.38;;;14.40;;
85835;SDS011;76292;47.678;19.066;2024-02-26T13:21:15;20.05;;;12.57;;
85835;SDS011;76292;47.678;19.066;2024-02-26T13:23:18;17.55;;;11.73;;
85835;SDS011;76292;47.678;19.066;2024-02-26T13:25:22;18.20;;;12.90;;
85835;SDS011;76292;47.678;19.066;2024-02-26T13:27:23;17.92;;;11.60;;
85835;SDS011;76292;47.678;19.066;2024-02-26T13:29:23;19.33;;;11.98;;
85835;SDS011;76292;47.678;19.066;2024-02-26T13:31:27;17.90;;;11.93;;
85835;SDS011;76292;47.678;19.066;2024-02-26T13:33:28;18.63;;;10.52;;
85835;SDS011;76292;47.678;19.066;2024-02-26T13:35:29;16.80;;;10.93;;
85835;SDS011;76292;47.678;19.066;2024-02-26T13:37:35;16.17;;;10.93;;